createdAt,value
2022-11-10T00:00:01.305Z,26.10
2022-11-10T00:00:31.412Z,26.12
2022-11-10T00:01:01.557Z,26.13
2022-11-10T00:01:31.529Z,26.10
2022-11-10T00:02:01.646Z,26.10
2022-11-10T00:02:31.755Z,26.13
2022-11-10T00:03:01.876Z,26.12
2022-11-10T00:03:31.886Z,26.09
2022-11-10T00:04:01.964Z,26.12
2022-11-10T00:04:32.038Z,26.12
2022-11-10T00:05:02.007Z,26.07
2022-11-10T00:05:32.119Z,26.12
2022-11-10T00:06:02.227Z,26.09
2022-11-10T00:06:32.431Z,26.10
2022-11-10T00:07:02.439Z,26.13
2022-11-10T00:07:32.476Z,26.10
2022-11-10T00:08:02.505Z,26.10
2022-11-10T00:08:32.595Z,26.10
2022-11-10T00:09:02.603Z,26.10
2022-11-10T00:09:32.615Z,26.09
2022-11-10T00:10:02.731Z,26.09
2022-11-10T00:10:32.845Z,26.10
2022-11-10T00:11:02.952Z,26.09
2022-11-10T00:11:33.067Z,26.10
2022-11-10T00:12:03.179Z,26.10
2022-11-10T00:12:33.288Z,26.12
2022-11-10T00:13:03.397Z,26.10
2022-11-10T00:13:33.527Z,26.09
2022-11-10T00:14:03.511Z,26.10
2022-11-10T00:14:33.629Z,26.12
2022-11-10T00:15:03.762Z,26.12
2022-11-10T00:15:33.849Z,26.10
2022-11-10T00:16:03.963Z,26.09
2022-11-10T00:16:34.073Z,26.12
2022-11-10T00:17:04.206Z,26.12
2022-11-10T00:17:34.295Z,26.13
2022-11-10T00:18:04.405Z,26.12
2022-11-10T00:18:34.446Z,26.13
2022-11-10T00:19:04.430Z,26.10
2022-11-10T00:19:34.542Z,26.10
2022-11-10T00:20:04.655Z,26.13
2022-11-10T00:20:34.766Z,26.10
2022-11-10T00:21:04.880Z,26.12
2022-11-10T00:21:34.991Z,26.10
2022-11-10T00:22:05.102Z,26.13
2022-11-10T00:22:35.211Z,26.12
2022-11-10T00:23:05.321Z,26.12
2022-11-10T00:23:35.454Z,26.13
2022-11-10T00:24:05.435Z,26.12
2022-11-10T00:24:35.545Z,26.13
2022-11-10T00:25:05.656Z,26.13
2022-11-10T00:25:35.771Z,26.12
2022-11-10T00:26:05.881Z,26.12
2022-11-10T00:26:35.994Z,26.13
2022-11-10T00:27:06.100Z,26.10
2022-11-10T00:27:36.214Z,26.10
2022-11-10T00:28:06.328Z,26.13
2022-11-10T00:28:36.467Z,26.15
2022-11-10T00:29:06.463Z,26.10
2022-11-10T00:29:36.567Z,26.13
2022-11-10T00:30:06.699Z,26.12
2022-11-10T00:30:36.791Z,26.13
2022-11-10T00:31:06.900Z,26.12
2022-11-10T00:31:37.010Z,26.10
2022-11-10T00:32:07.127Z,26.12
2022-11-10T00:32:37.236Z,26.12
2022-11-10T00:33:07.345Z,26.13
2022-11-10T00:33:37.482Z,26.10
2022-11-10T00:34:07.459Z,26.15
2022-11-10T00:34:37.575Z,26.13
2022-11-10T00:35:07.684Z,26.13
2022-11-10T00:35:37.793Z,26.15
2022-11-10T00:36:07.899Z,26.12
2022-11-10T00:36:38.013Z,26.12
2022-11-10T00:37:08.128Z,26.12
2022-11-10T00:37:38.240Z,26.12
2022-11-10T00:38:08.345Z,26.15
2022-11-10T00:38:38.500Z,26.13
2022-11-10T00:39:08.488Z,26.12
2022-11-10T00:39:38.607Z,26.13
2022-11-10T00:40:08.719Z,26.12
2022-11-10T00:40:38.822Z,26.10
2022-11-10T00:41:08.934Z,26.10
2022-11-10T00:41:39.046Z,26.12
2022-11-10T00:42:09.159Z,26.10
2022-11-10T00:42:39.268Z,26.07
2022-11-10T00:43:09.374Z,26.12
2022-11-10T00:43:39.498Z,26.09
2022-11-10T00:44:09.488Z,26.10
2022-11-10T00:44:39.593Z,26.10
2022-11-10T00:45:09.734Z,26.10
2022-11-10T00:45:39.827Z,26.12
2022-11-10T00:46:09.929Z,26.09
2022-11-10T00:46:40.045Z,26.12
2022-11-10T00:47:10.163Z,26.10
2022-11-10T00:47:40.273Z,26.10
2022-11-10T00:48:10.387Z,26.09
2022-11-10T00:48:40.955Z,26.09
2022-11-10T00:49:10.568Z,26.09
2022-11-10T00:49:40.683Z,26.07
2022-11-10T00:50:10.791Z,26.10
2022-11-10T00:50:40.945Z,26.09
2022-11-10T00:51:10.921Z,26.07
2022-11-10T00:51:41.032Z,26.07
2022-11-10T00:52:11.146Z,26.09
2022-11-10T00:52:41.172Z,26.09
2022-11-10T00:53:11.196Z,26.09
2022-11-10T00:53:41.244Z,26.07
2022-11-10T00:54:11.263Z,26.09
2022-11-10T00:54:41.291Z,26.07
2022-11-10T00:55:11.312Z,26.07
2022-11-10T00:55:41.339Z,26.07
2022-11-10T00:56:11.364Z,26.07
2022-11-10T00:56:41.391Z,26.09
2022-11-10T00:57:11.412Z,26.07
2022-11-10T00:57:41.437Z,26.07
2022-11-10T00:58:11.502Z,26.07
2022-11-10T00:58:41.524Z,26.05
2022-11-10T00:59:11.551Z,26.09
2022-11-10T00:59:41.576Z,26.06
2022-11-10T01:00:11.599Z,26.06
2022-11-10T01:00:41.683Z,26.06
2022-11-10T01:01:11.751Z,26.06
2022-11-10T01:01:41.788Z,26.09
2022-11-10T01:02:11.810Z,26.07
2022-11-10T01:02:41.842Z,26.06
2022-11-10T01:03:11.876Z,26.06
2022-11-10T01:03:41.900Z,26.07
2022-11-10T01:04:11.923Z,26.07
2022-11-10T01:04:41.947Z,26.07
2022-11-10T01:05:11.973Z,26.06
2022-11-10T01:05:41.992Z,26.05
2022-11-10T01:06:12.021Z,26.07
2022-11-10T01:06:42.108Z,26.05
2022-11-10T01:07:12.248Z,26.05
2022-11-10T01:07:42.135Z,26.07
2022-11-10T01:08:12.199Z,26.05
2022-11-10T01:08:42.226Z,26.06
2022-11-10T01:09:12.246Z,26.07
2022-11-10T01:09:42.268Z,26.06
2022-11-10T01:10:12.298Z,26.06
2022-11-10T01:10:42.324Z,26.07
2022-11-10T01:11:12.353Z,26.07
2022-11-10T01:11:42.378Z,26.05
2022-11-10T01:12:12.397Z,26.07
2022-11-10T01:12:42.429Z,26.06
2022-11-10T01:13:12.461Z,26.05
2022-11-10T01:13:42.510Z,26.06
2022-11-10T01:14:12.540Z,26.09
2022-11-10T01:14:42.565Z,26.05
2022-11-10T01:15:12.592Z,26.06
2022-11-10T01:15:42.618Z,26.05
2022-11-10T01:16:12.670Z,26.06
2022-11-10T01:16:42.663Z,26.05
2022-11-10T01:17:12.691Z,26.07
2022-11-10T01:17:42.712Z,26.06
2022-11-10T01:18:12.769Z,26.06
2022-11-10T01:18:42.796Z,26.05
2022-11-10T01:19:12.819Z,26.05
2022-11-10T01:19:42.844Z,26.06
2022-11-10T01:20:12.868Z,26.06
2022-11-10T01:20:42.897Z,26.06
2022-11-10T01:21:12.920Z,26.05
2022-11-10T01:21:42.942Z,26.07
2022-11-10T01:22:12.968Z,26.06
2022-11-10T01:22:42.988Z,26.07
2022-11-10T01:23:13.045Z,26.05
2022-11-10T01:23:43.070Z,26.05
2022-11-10T01:24:13.106Z,26.09
2022-11-10T01:24:43.138Z,26.03
2022-11-10T01:25:13.163Z,26.05
2022-11-10T01:25:43.186Z,26.05
2022-11-10T01:26:13.212Z,26.05
2022-11-10T01:26:43.240Z,26.06
2022-11-10T01:27:13.268Z,26.06
2022-11-10T01:27:43.288Z,26.07
2022-11-10T01:28:13.336Z,26.05
2022-11-10T01:28:43.363Z,26.06
2022-11-10T01:29:13.391Z,26.06
2022-11-10T01:29:43.413Z,26.03
2022-11-10T01:30:13.435Z,26.05
2022-11-10T01:30:43.468Z,26.05
2022-11-10T01:31:13.489Z,26.05
2022-11-10T01:31:43.540Z,26.06
2022-11-10T01:32:13.537Z,26.06
2022-11-10T01:32:43.560Z,26.05
2022-11-10T01:33:13.612Z,26.05
2022-11-10T01:33:43.619Z,26.05
2022-11-10T01:34:13.649Z,26.03
2022-11-10T01:34:43.666Z,26.06
2022-11-10T01:35:13.693Z,26.06
2022-11-10T01:35:43.716Z,26.06
2022-11-10T01:36:13.737Z,26.06
2022-11-10T01:36:43.762Z,26.03
2022-11-10T01:37:13.782Z,26.03
2022-11-10T01:37:43.815Z,26.05
2022-11-10T01:38:13.826Z,26.03
2022-11-10T01:38:43.868Z,26.05
2022-11-10T01:39:13.875Z,26.05
2022-11-10T01:39:43.895Z,26.05
2022-11-10T01:40:13.988Z,26.05
2022-11-10T01:40:44.084Z,26.05
2022-11-10T01:41:14.141Z,26.03
2022-11-10T01:41:44.164Z,26.05
2022-11-10T01:42:14.185Z,26.05
2022-11-10T01:42:44.300Z,26.02
2022-11-10T01:43:14.417Z,26.03
2022-11-10T01:43:44.554Z,26.03
2022-11-10T01:44:14.644Z,26.03
2022-11-10T01:44:44.756Z,26.00
2022-11-10T01:45:14.867Z,26.03
2022-11-10T01:45:44.980Z,26.05
2022-11-10T01:46:15.093Z,26.03
2022-11-10T01:46:45.079Z,26.05
2022-11-10T01:47:15.215Z,26.05
2022-11-10T01:47:45.299Z,26.03
2022-11-10T01:48:15.411Z,26.03
2022-11-10T01:48:45.529Z,26.05
2022-11-10T01:49:15.641Z,26.03
2022-11-10T01:49:45.754Z,26.03
2022-11-10T01:50:15.869Z,26.03
2022-11-10T01:50:45.861Z,26.00
2022-11-10T01:51:15.970Z,26.03
2022-11-10T01:51:46.084Z,26.03
2022-11-10T01:52:16.199Z,26.03
2022-11-10T01:52:46.225Z,26.02
2022-11-10T01:53:16.251Z,26.03
2022-11-10T01:53:46.277Z,26.03
2022-11-10T01:54:16.305Z,26.03
2022-11-10T01:54:46.335Z,26.03
2022-11-10T01:55:16.356Z,26.05
2022-11-10T01:55:46.385Z,26.02
2022-11-10T01:56:16.410Z,26.03
2022-11-10T01:56:46.432Z,26.02
2022-11-10T01:57:16.457Z,26.02
2022-11-10T01:57:46.483Z,26.02
2022-11-10T01:58:16.512Z,26.02
2022-11-10T01:58:46.539Z,25.99
2022-11-10T01:59:16.564Z,26.02
2022-11-10T01:59:46.592Z,26.03
2022-11-10T02:00:16.617Z,26.02
2022-11-10T02:00:46.663Z,26.03
2022-11-10T02:01:16.689Z,26.03
2022-11-10T02:01:46.749Z,26.02
2022-11-10T02:02:16.783Z,26.03
2022-11-10T02:02:46.829Z,26.03
2022-11-10T02:03:16.830Z,26.02
2022-11-10T02:03:46.865Z,26.02
2022-11-10T02:04:16.890Z,26.05
2022-11-10T02:04:46.907Z,26.02
2022-11-10T02:05:16.935Z,26.03
2022-11-10T02:05:46.959Z,26.03
2022-11-10T02:06:16.986Z,26.02
2022-11-10T02:06:47.063Z,26.00
2022-11-10T02:07:17.180Z,26.02
2022-11-10T02:07:47.114Z,26.03
2022-11-10T02:08:17.356Z,26.02
2022-11-10T02:08:47.253Z,26.03
2022-11-10T02:09:17.275Z,26.06
2022-11-10T02:09:47.296Z,26.02
2022-11-10T02:10:17.320Z,26.02
2022-11-10T02:10:47.350Z,26.00
2022-11-10T02:11:17.371Z,26.02
2022-11-10T02:11:47.400Z,26.00
2022-11-10T02:12:17.422Z,26.02
2022-11-10T02:12:47.461Z,26.02
2022-11-10T02:13:17.484Z,26.02
2022-11-10T02:13:47.515Z,26.03
2022-11-10T02:14:17.541Z,26.02
2022-11-10T02:14:47.565Z,26.00
2022-11-10T02:15:17.592Z,26.02
2022-11-10T02:15:47.610Z,26.00
2022-11-10T02:16:17.641Z,26.03
2022-11-10T02:16:47.663Z,26.00
2022-11-10T02:17:17.690Z,26.00
2022-11-10T02:17:47.736Z,26.02
2022-11-10T02:18:17.802Z,26.00
2022-11-10T02:18:47.809Z,26.02
2022-11-10T02:19:17.832Z,26.02
2022-11-10T02:19:47.855Z,26.00
2022-11-10T02:20:17.879Z,26.00
2022-11-10T02:20:47.905Z,25.99
2022-11-10T02:21:17.924Z,26.00
2022-11-10T02:21:47.948Z,26.00
2022-11-10T02:22:17.972Z,26.03
2022-11-10T02:22:48.038Z,26.00
2022-11-10T02:23:18.214Z,26.00
2022-11-10T02:23:48.147Z,26.00
2022-11-10T02:24:18.169Z,26.00
2022-11-10T02:24:48.196Z,25.99
2022-11-10T02:25:18.219Z,26.03
2022-11-10T02:25:48.245Z,26.00
2022-11-10T02:26:18.271Z,26.00
2022-11-10T02:26:48.293Z,25.99
2022-11-10T02:27:18.319Z,26.00
2022-11-10T02:27:48.400Z,25.99
2022-11-10T02:28:18.424Z,26.00
2022-11-10T02:28:48.447Z,26.03
2022-11-10T02:29:18.472Z,26.02
2022-11-10T02:29:48.501Z,26.02
2022-11-10T02:30:18.527Z,26.00
2022-11-10T02:30:48.550Z,26.02
2022-11-10T02:31:18.573Z,25.99
2022-11-10T02:31:48.598Z,26.02
2022-11-10T02:32:18.623Z,26.02
2022-11-10T02:32:48.663Z,26.00
2022-11-10T02:33:18.935Z,25.99
2022-11-10T02:33:48.810Z,26.02
2022-11-10T02:34:18.813Z,26.00
2022-11-10T02:34:48.840Z,26.00
2022-11-10T02:35:18.862Z,26.02
2022-11-10T02:35:48.894Z,26.00
2022-11-10T02:36:18.924Z,26.00
2022-11-10T02:36:48.946Z,26.00
2022-11-10T02:37:18.972Z,26.02
2022-11-10T02:37:49.039Z,25.99
2022-11-10T02:38:19.070Z,26.03
2022-11-10T02:38:49.096Z,26.05
2022-11-10T02:39:19.128Z,26.00
2022-11-10T02:39:49.149Z,26.00
2022-11-10T02:40:19.170Z,26.02
2022-11-10T02:40:49.198Z,26.02
2022-11-10T02:41:19.222Z,26.02
2022-11-10T02:41:49.245Z,26.06
2022-11-10T02:42:19.260Z,26.02
2022-11-10T02:42:49.391Z,26.02
2022-11-10T02:43:19.693Z,26.03
2022-11-10T02:43:49.489Z,26.03
2022-11-10T02:44:19.606Z,26.02
2022-11-10T02:44:49.721Z,26.02
2022-11-10T02:45:19.832Z,26.00
2022-11-10T02:45:49.941Z,26.02
2022-11-10T02:46:20.052Z,26.05
2022-11-10T02:46:50.160Z,26.02
2022-11-10T02:47:20.275Z,26.05
2022-11-10T02:47:50.389Z,26.02
2022-11-10T02:48:20.500Z,26.03
2022-11-10T02:48:50.608Z,26.03
2022-11-10T02:49:20.749Z,26.02
2022-11-10T02:49:50.837Z,26.03
2022-11-10T02:50:20.949Z,26.03
2022-11-10T02:50:51.065Z,26.00
2022-11-10T02:51:21.076Z,26.03
2022-11-10T02:51:51.196Z,26.02
2022-11-10T02:52:21.186Z,26.03
2022-11-10T02:52:51.208Z,26.03
2022-11-10T02:53:21.631Z,26.00
2022-11-10T02:53:51.304Z,26.02
2022-11-10T02:54:21.328Z,26.03
2022-11-10T02:54:51.346Z,26.03
2022-11-10T02:55:21.368Z,26.02
2022-11-10T02:55:51.397Z,26.03
2022-11-10T02:56:21.424Z,26.05
2022-11-10T02:56:51.448Z,26.03
2022-11-10T02:57:21.478Z,26.03
2022-11-10T02:57:51.502Z,26.03
2022-11-10T02:58:21.530Z,26.03
2022-11-10T02:58:51.552Z,26.03
2022-11-10T02:59:21.575Z,26.03
2022-11-10T02:59:51.598Z,26.03
2022-11-10T03:00:21.624Z,26.03
2022-11-10T03:00:51.676Z,26.02
2022-11-10T03:01:21.785Z,26.02
2022-11-10T03:01:51.792Z,26.03
2022-11-10T03:02:21.818Z,26.03
2022-11-10T03:02:51.852Z,26.02
2022-11-10T03:03:22.323Z,26.02
2022-11-10T03:03:51.934Z,26.02
2022-11-10T03:04:21.953Z,26.03
2022-11-10T03:04:52.000Z,26.02
2022-11-10T03:05:22.007Z,26.02
2022-11-10T03:05:52.024Z,26.00
2022-11-10T03:06:22.060Z,25.97
2022-11-10T03:06:52.143Z,26.02
2022-11-10T03:07:22.149Z,26.02
2022-11-10T03:07:52.181Z,25.99
2022-11-10T03:08:22.205Z,26.02
2022-11-10T03:08:52.225Z,26.00
2022-11-10T03:09:22.249Z,26.00
2022-11-10T03:09:52.275Z,26.00
2022-11-10T03:10:22.301Z,25.99
2022-11-10T03:10:52.323Z,26.00
2022-11-10T03:11:22.348Z,26.00
2022-11-10T03:11:52.374Z,25.97
2022-11-10T03:12:22.400Z,25.99
2022-11-10T03:12:52.430Z,26.00
2022-11-10T03:13:22.892Z,26.00
2022-11-10T03:14:01.629Z,26.00
2022-11-10T03:14:22.613Z,25.97
2022-11-10T03:14:52.639Z,25.99
2022-11-10T03:15:22.666Z,26.00
2022-11-10T03:15:52.686Z,25.97
2022-11-10T03:16:22.718Z,26.00
2022-11-10T03:16:52.743Z,25.99
2022-11-10T03:17:22.769Z,25.97
2022-11-10T03:17:52.806Z,25.99
2022-11-10T03:18:22.834Z,25.97
2022-11-10T03:18:52.860Z,25.97
2022-11-10T03:19:22.882Z,25.99
2022-11-10T03:19:52.914Z,26.00
2022-11-10T03:20:22.959Z,25.96
2022-11-10T03:20:52.963Z,25.99
2022-11-10T03:21:22.991Z,25.97
2022-11-10T03:21:53.016Z,25.96
2022-11-10T03:22:23.045Z,25.99
2022-11-10T03:22:53.079Z,25.99
2022-11-10T03:23:23.314Z,25.97
2022-11-10T03:23:53.144Z,25.97
2022-11-10T03:24:23.166Z,25.96
2022-11-10T03:24:53.198Z,25.96
2022-11-10T03:25:23.225Z,25.96
2022-11-10T03:25:53.252Z,25.97
2022-11-10T03:26:23.277Z,25.99
2022-11-10T03:26:53.301Z,25.97
2022-11-10T03:27:23.330Z,25.95
2022-11-10T03:27:53.360Z,25.96
2022-11-10T03:28:23.388Z,25.96
2022-11-10T03:28:53.415Z,25.97
2022-11-10T03:29:23.464Z,25.99
2022-11-10T03:29:53.466Z,25.96
2022-11-10T03:30:23.484Z,25.95
2022-11-10T03:30:53.515Z,25.95
2022-11-10T03:31:23.540Z,25.97
2022-11-10T03:31:53.570Z,25.97
2022-11-10T03:32:23.589Z,25.97
2022-11-10T03:32:53.630Z,25.96
2022-11-10T03:33:24.105Z,25.97
2022-11-10T03:33:53.650Z,25.96
2022-11-10T03:34:26.966Z,25.93
2022-11-10T03:34:53.720Z,25.95
2022-11-10T03:35:23.742Z,25.95
2022-11-10T03:35:53.795Z,25.93
2022-11-10T03:36:23.791Z,25.96
2022-11-10T03:36:53.820Z,25.96
2022-11-10T03:37:23.840Z,25.95
2022-11-10T03:37:53.876Z,25.95
2022-11-10T03:38:23.904Z,25.93
2022-11-10T03:38:53.931Z,25.96
2022-11-10T03:39:23.958Z,25.95
2022-11-10T03:39:53.979Z,25.95
2022-11-10T03:40:24.008Z,25.96
2022-11-10T03:41:24.075Z,25.95
2022-11-10T03:41:54.094Z,25.96
2022-11-10T03:42:24.106Z,25.95
2022-11-10T03:42:54.226Z,25.93
2022-11-10T03:43:24.709Z,25.93
2022-11-10T03:43:54.422Z,25.95
2022-11-10T03:44:24.530Z,25.96
2022-11-10T03:44:54.644Z,25.96
2022-11-10T03:45:24.680Z,25.93
2022-11-10T03:45:54.798Z,25.96
2022-11-10T03:46:24.907Z,25.95
2022-11-10T03:46:55.023Z,25.93
2022-11-10T03:47:25.133Z,25.96
2022-11-10T03:47:55.262Z,25.95
2022-11-10T03:48:25.241Z,25.95
2022-11-10T03:48:55.354Z,25.95
2022-11-10T03:49:25.466Z,25.96
2022-11-10T03:49:55.581Z,25.95
2022-11-10T03:50:25.699Z,25.95
2022-11-10T03:50:55.810Z,25.95
2022-11-10T03:51:25.947Z,25.95
2022-11-10T03:51:56.034Z,25.95
2022-11-10T03:52:26.042Z,25.93
2022-11-10T03:52:56.075Z,25.95
2022-11-10T03:53:26.106Z,25.95
2022-11-10T03:53:56.130Z,25.95
2022-11-10T03:54:26.154Z,25.95
2022-11-10T03:55:00.618Z,25.95
2022-11-10T03:55:26.227Z,25.93
2022-11-10T03:55:56.259Z,25.92
2022-11-10T03:56:26.281Z,25.96
2022-11-10T03:56:56.307Z,25.92
2022-11-10T03:57:26.331Z,25.95
2022-11-10T03:57:56.366Z,25.95
2022-11-10T03:58:26.393Z,25.95
2022-11-10T03:58:56.413Z,25.95
2022-11-10T03:59:26.439Z,25.93
2022-11-10T03:59:56.465Z,25.93
2022-11-10T04:00:26.494Z,25.95
2022-11-10T04:00:56.518Z,25.92
2022-11-10T04:01:26.584Z,25.95
2022-11-10T04:01:56.651Z,25.95
2022-11-10T04:02:26.685Z,25.93
2022-11-10T04:02:56.731Z,25.95
2022-11-10T04:03:26.754Z,25.95
2022-11-10T04:03:56.770Z,25.93
2022-11-10T04:04:26.797Z,25.92
2022-11-10T04:04:56.825Z,25.93
2022-11-10T04:05:26.852Z,25.93
2022-11-10T04:05:56.889Z,25.95
2022-11-10T04:06:26.913Z,25.93
2022-11-10T04:06:56.995Z,25.95
2022-11-10T04:07:27.037Z,25.93
2022-11-10T04:07:57.087Z,25.95
2022-11-10T04:08:27.102Z,25.95
2022-11-10T04:08:57.128Z,25.92
2022-11-10T04:09:27.154Z,25.92
2022-11-10T04:09:57.179Z,25.92
2022-11-10T04:10:27.209Z,25.93
2022-11-10T04:10:57.238Z,25.92
2022-11-10T04:11:27.261Z,25.92
2022-11-10T04:11:57.288Z,25.93
2022-11-10T04:12:27.311Z,25.92
2022-11-10T04:12:57.351Z,25.93
2022-11-10T04:13:27.374Z,25.93
2022-11-10T04:13:57.402Z,25.92
2022-11-10T04:14:27.426Z,25.91
2022-11-10T04:14:57.447Z,25.92
2022-11-10T04:15:27.476Z,25.92
2022-11-10T04:15:57.501Z,25.92
2022-11-10T04:16:27.531Z,25.91
2022-11-10T04:16:57.550Z,25.91
2022-11-10T04:17:27.575Z,25.95
2022-11-10T04:17:57.611Z,25.92
2022-11-10T04:18:27.636Z,25.91
2022-11-10T04:18:57.665Z,25.92
2022-11-10T04:19:27.684Z,25.92
2022-11-10T04:19:57.717Z,25.91
2022-11-10T04:20:27.738Z,25.89
2022-11-10T04:20:57.768Z,25.93
2022-11-10T04:21:27.790Z,25.92
2022-11-10T04:21:57.823Z,25.93
2022-11-10T04:22:27.868Z,25.92
2022-11-10T04:22:57.878Z,25.92
2022-11-10T04:23:27.903Z,25.92
2022-11-10T04:23:57.935Z,25.92
2022-11-10T04:24:27.949Z,25.92
2022-11-10T04:24:57.980Z,25.92
2022-11-10T04:25:28.002Z,25.89
2022-11-10T04:25:58.029Z,25.88
2022-11-10T04:26:28.052Z,25.91
2022-11-10T04:26:58.077Z,25.91
2022-11-10T04:27:28.113Z,25.91
2022-11-10T04:27:58.135Z,25.89
2022-11-10T04:28:28.159Z,25.92
2022-11-10T04:28:58.185Z,25.91
2022-11-10T04:29:28.206Z,25.89
2022-11-10T04:29:58.235Z,25.88
2022-11-10T04:30:28.251Z,25.88
2022-11-10T04:30:58.286Z,25.92
2022-11-10T04:31:28.304Z,25.89
2022-11-10T04:31:58.326Z,25.89
2022-11-10T04:32:28.354Z,25.91
2022-11-10T04:32:58.377Z,25.89
2022-11-10T04:33:28.401Z,25.91
2022-11-10T04:33:58.425Z,25.91
2022-11-10T04:34:28.456Z,25.89
2022-11-10T04:34:58.481Z,25.91
2022-11-10T04:35:28.505Z,25.89
2022-11-10T04:35:58.534Z,25.91
2022-11-10T04:36:28.558Z,25.89
2022-11-10T04:36:58.585Z,25.89
2022-11-10T04:37:28.622Z,25.88
2022-11-10T04:37:58.769Z,25.89
2022-11-10T04:38:28.646Z,25.89
2022-11-10T04:38:58.668Z,25.89
2022-11-10T04:39:28.709Z,25.88
2022-11-10T04:39:58.762Z,25.91
2022-11-10T04:40:28.794Z,25.91
2022-11-10T04:40:58.826Z,25.86
2022-11-10T04:41:28.848Z,25.86
2022-11-10T04:42:02.735Z,25.89
2022-11-10T04:42:28.892Z,25.85
2022-11-10T04:42:59.011Z,25.86
2022-11-10T04:43:29.126Z,25.88
2022-11-10T04:43:59.248Z,25.86
2022-11-10T04:44:29.232Z,25.88
2022-11-10T04:44:59.340Z,25.89
2022-11-10T04:45:29.453Z,25.88
2022-11-10T04:45:59.569Z,25.91
2022-11-10T04:46:29.679Z,25.89
2022-11-10T04:46:59.795Z,25.92
2022-11-10T04:47:29.907Z,25.89
2022-11-10T04:48:00.021Z,25.91
2022-11-10T04:48:30.016Z,25.92
2022-11-10T04:49:00.123Z,25.91
2022-11-10T04:49:30.240Z,25.95
2022-11-10T04:50:00.378Z,25.95
2022-11-10T04:50:30.344Z,25.96
2022-11-10T04:51:00.460Z,25.96
2022-11-10T04:51:30.619Z,25.93
2022-11-10T04:52:00.671Z,25.96
2022-11-10T04:52:30.703Z,25.96
2022-11-10T04:53:00.741Z,25.97
2022-11-10T04:53:30.783Z,25.97
2022-11-10T04:54:00.787Z,25.96
2022-11-10T04:54:30.813Z,25.97
2022-11-10T04:55:00.841Z,25.97
2022-11-10T04:55:30.864Z,25.97
2022-11-10T04:56:00.893Z,25.96
2022-11-10T04:56:30.912Z,26.00
2022-11-10T04:57:00.939Z,25.99
2022-11-10T04:57:30.959Z,25.99
2022-11-10T04:58:00.995Z,26.00
2022-11-10T04:58:31.024Z,25.97
2022-11-10T04:59:01.047Z,26.00
2022-11-10T04:59:31.075Z,25.99
2022-11-10T05:00:01.102Z,25.97
2022-11-10T05:00:31.209Z,26.00
2022-11-10T05:01:01.309Z,25.99
2022-11-10T05:01:31.216Z,26.00
2022-11-10T05:02:01.251Z,25.97
2022-11-10T05:02:35.527Z,26.00
2022-11-10T05:03:01.320Z,25.99
2022-11-10T05:03:31.342Z,26.03
2022-11-10T05:04:01.367Z,26.00
2022-11-10T05:04:31.396Z,26.03
2022-11-10T05:05:01.417Z,26.02
2022-11-10T05:05:31.447Z,26.05
2022-11-10T05:06:01.466Z,26.03
2022-11-10T05:06:31.560Z,26.05
2022-11-10T05:07:01.602Z,26.05
2022-11-10T05:07:31.605Z,26.03
2022-11-10T05:08:01.634Z,26.05
2022-11-10T05:08:31.663Z,26.05
2022-11-10T05:09:01.715Z,26.02
2022-11-10T05:09:31.709Z,26.07
2022-11-10T05:10:01.736Z,26.06
2022-11-10T05:10:31.761Z,26.03
2022-11-10T05:11:01.787Z,26.05
2022-11-10T05:11:31.819Z,26.06
2022-11-10T05:12:01.836Z,26.07
2022-11-10T05:12:31.863Z,26.07
2022-11-10T05:13:01.891Z,26.07
2022-11-10T05:13:31.918Z,26.06
2022-11-10T05:14:01.943Z,26.05
2022-11-10T05:14:31.973Z,26.03
2022-11-10T05:15:01.995Z,26.02
2022-11-10T05:15:32.018Z,26.03
2022-11-10T05:16:02.043Z,26.02
2022-11-10T05:16:32.068Z,25.97
2022-11-10T05:17:02.092Z,26.00
2022-11-10T05:17:32.127Z,26.02
2022-11-10T05:18:02.142Z,25.95
2022-11-10T05:18:32.167Z,25.95
2022-11-10T05:19:02.193Z,25.96
2022-11-10T05:19:32.224Z,25.96
2022-11-10T05:20:02.255Z,25.97
2022-11-10T05:20:32.270Z,25.97
2022-11-10T05:21:02.326Z,25.97
2022-11-10T05:21:32.349Z,25.97
2022-11-10T05:22:02.376Z,26.00
2022-11-10T05:22:32.408Z,25.97
2022-11-10T05:23:02.438Z,25.99
2022-11-10T05:23:32.476Z,26.00
2022-11-10T05:24:02.513Z,25.97
2022-11-10T05:24:32.562Z,25.96
2022-11-10T05:25:02.564Z,25.97
2022-11-10T05:25:32.596Z,26.00
2022-11-10T05:26:02.621Z,26.00
2022-11-10T05:26:32.644Z,26.00
2022-11-10T05:27:02.675Z,26.00
2022-11-10T05:27:32.704Z,26.03
2022-11-10T05:28:02.726Z,26.06
2022-11-10T05:28:32.753Z,26.05
2022-11-10T05:29:02.774Z,26.09
2022-11-10T05:29:32.803Z,26.07
2022-11-10T05:30:02.827Z,26.09
2022-11-10T05:30:32.850Z,26.10
2022-11-10T05:31:02.874Z,26.10
2022-11-10T05:31:32.894Z,26.12
2022-11-10T05:32:02.929Z,26.13
2022-11-10T05:32:32.952Z,26.12
2022-11-10T05:33:02.977Z,26.12
2022-11-10T05:33:33.017Z,26.13
2022-11-10T05:34:03.028Z,26.15
2022-11-10T05:34:33.126Z,26.13
2022-11-10T05:35:03.154Z,26.15
2022-11-10T05:35:33.190Z,26.17
2022-11-10T05:36:03.218Z,26.19
2022-11-10T05:36:33.248Z,26.17
2022-11-10T05:37:03.281Z,26.12
2022-11-10T05:37:33.305Z,26.13
2022-11-10T05:38:03.326Z,26.12
2022-11-10T05:38:33.356Z,26.13
2022-11-10T05:39:03.374Z,26.10
2022-11-10T05:39:33.398Z,26.15
2022-11-10T05:40:03.446Z,26.12
2022-11-10T05:40:33.452Z,26.13
2022-11-10T05:41:03.476Z,26.10
2022-11-10T05:41:33.507Z,26.07
2022-11-10T05:42:03.535Z,26.09
2022-11-10T05:42:33.550Z,26.03
2022-11-10T05:43:03.536Z,26.03
2022-11-10T05:43:33.653Z,26.03
2022-11-10T05:44:03.639Z,26.06
2022-11-10T05:44:33.747Z,26.07
2022-11-10T05:45:03.861Z,26.06
2022-11-10T05:45:33.972Z,26.09
2022-11-10T05:46:04.078Z,26.06
2022-11-10T05:46:34.190Z,26.06
2022-11-10T05:47:04.304Z,26.06
2022-11-10T05:47:34.373Z,26.05
2022-11-10T05:48:04.360Z,26.06
2022-11-10T05:48:34.496Z,26.05
2022-11-10T05:49:04.492Z,26.09
2022-11-10T05:49:34.675Z,26.06
2022-11-10T05:50:04.646Z,26.06
2022-11-10T05:50:34.765Z,26.00
2022-11-10T05:51:04.957Z,26.05
2022-11-10T05:51:34.931Z,26.02
2022-11-10T05:52:04.921Z,25.96
2022-11-10T05:52:34.966Z,25.97
2022-11-10T05:53:04.989Z,25.96
2022-11-10T05:53:35.063Z,25.96
2022-11-10T05:54:05.880Z,25.93
2022-11-10T05:54:35.164Z,25.93
2022-11-10T05:55:05.200Z,25.95
2022-11-10T05:55:35.281Z,25.93
2022-11-10T05:56:05.290Z,25.93
2022-11-10T05:56:35.313Z,25.95
2022-11-10T05:57:05.333Z,25.93
2022-11-10T05:57:35.519Z,25.92
2022-11-10T05:58:05.399Z,25.91
2022-11-10T05:58:35.471Z,25.86
2022-11-10T05:59:05.510Z,25.91
2022-11-10T05:59:35.531Z,25.86
2022-11-10T06:00:05.746Z,25.84
2022-11-10T06:00:35.718Z,25.82
2022-11-10T06:01:05.726Z,25.82
2022-11-10T06:01:35.754Z,25.82
2022-11-10T06:02:05.772Z,25.85
2022-11-10T06:02:36.362Z,25.82
2022-11-10T06:03:06.012Z,25.84
2022-11-10T06:03:35.962Z,25.86
2022-11-10T06:04:05.987Z,25.84
2022-11-10T06:04:36.011Z,25.85
2022-11-10T06:05:06.127Z,25.86
2022-11-10T06:05:36.070Z,25.88
2022-11-10T06:06:06.095Z,25.85
2022-11-10T06:06:36.168Z,25.88
2022-11-10T06:07:06.263Z,25.91
2022-11-10T06:07:36.280Z,25.92
2022-11-10T06:08:06.317Z,25.93
2022-11-10T06:08:36.329Z,25.95
2022-11-10T06:09:06.391Z,25.96
2022-11-10T06:09:36.395Z,25.97
2022-11-10T06:10:06.420Z,25.99
2022-11-10T06:10:36.482Z,26.02
2022-11-10T06:11:06.525Z,26.02
2022-11-10T06:11:36.526Z,26.03
2022-11-10T06:12:06.552Z,26.05
2022-11-10T06:12:36.585Z,26.06
2022-11-10T06:13:06.640Z,26.09
2022-11-10T06:13:36.698Z,26.09
2022-11-10T06:14:06.704Z,26.13
2022-11-10T06:14:36.758Z,26.16
2022-11-10T06:15:06.791Z,26.17
2022-11-10T06:15:36.813Z,26.19
2022-11-10T06:16:06.862Z,26.22
2022-11-10T06:16:37.021Z,26.23
2022-11-10T06:17:06.904Z,26.24
2022-11-10T06:17:36.946Z,26.26
2022-11-10T06:18:07.002Z,26.29
2022-11-10T06:18:37.049Z,26.30
2022-11-10T06:19:07.090Z,26.32
2022-11-10T06:19:37.134Z,26.34
2022-11-10T06:20:07.163Z,26.34
2022-11-10T06:20:37.189Z,26.39
2022-11-10T06:21:07.209Z,26.39
2022-11-10T06:21:37.232Z,26.46
2022-11-10T06:22:08.021Z,26.47
2022-11-10T06:22:37.352Z,26.47
2022-11-10T06:23:07.392Z,26.47
2022-11-10T06:23:37.416Z,26.51
2022-11-10T06:24:07.442Z,26.53
2022-11-10T06:24:37.470Z,26.57
2022-11-10T06:25:07.511Z,26.58
2022-11-10T06:25:37.577Z,26.60
2022-11-10T06:26:07.627Z,26.63
2022-11-10T06:26:37.683Z,26.64
2022-11-10T06:27:07.681Z,26.67